Hartford, Connecticut
Traffic Map
Current Weather Conditions
Hartford, Connecticut
Overcast Moderate Rain
Overcast
33°
Feels Like: 23°
Wind Chill: 23° Ceiling: 2600
Heat Index: 33° Visibility: 3mi
Dew Point: 32° Wind: 16mph
Humidity: 96% Direction: 10° (N)
Pressure: 29.74in Gusts: 0mph
Raw Report DataKHFD 240153Z 01014KT 3SM RA BR SCT021 OVC026 01/00 A2974 RMK AO2 SLP071 P0016 T00060000
Traffic Incident Summary
Active as of:
Severity:
Category:
InformationThere was an issue retrieving the traffic information for this location. Please try a different location or try again shortly.
Advertisements
Track Severe Weather on mobile